Quick Links (Output Below):   Max & Min Temps   /   Climate Reports   /   Zone Forecasts
River Forecasts   /   Forestry Forecasts   /   Aviation Forecasts   /   Radars   /   Features

Terminal Aerodrome Forecast (Mountain Home)

Pick a Site:
Arkadelphia | El Dorado | Fayetteville | Fort Smith | Harrison | Highfill | Hot Springs | Jonesboro
Little Rock | Monticello | Mountain Home | Pine Bluff | Texarkana
 Forecast 

KBPK 242320Z 2500/2524 21004KT P6SM SCT250
      TEMPO 2509/2513 2SM BR
     FM251800 30006KT P6SM SCT250=


 Latest METARs (Observations) 
How to Decode METARs
01Z KBPK 250053Z AUTO 15004KT 9SM CLR 18/14 A3006 RMK AO2 SLP178
         T01780144
         
00Z KBPK 242353Z AUTO 14003KT 9SM CLR 18/14 A3006 RMK AO2 SLP176
         T01830144 10233 20183 55003
         
***** Today's Observations (Above) *****


23Z KBPK 242253Z AUTO 00000KT 8SM CLR 19/15 A3006 RMK AO2 SLP175
         T01940150
         
22Z KBPK 242153Z AUTO 16004KT 8SM CLR 22/15 A3006 RMK AO2 SLP176
         T02170150
         
21Z KBPK 242053Z AUTO 00000KT 8SM CLR 23/14 A3007 RMK AO2 SLP177
         T02280144 56019
         
20Z KBPK 241953Z AUTO 17004KT 8SM CLR 22/14 A3008 RMK AO2 SLP180
         T02220139
         
19Z KBPK 241853Z AUTO VRB03KT 9SM FEW045 22/14 A3010 RMK AO2 SLP187
         T02170139
         
18Z KBPK 241753Z AUTO VRB03KT 9SM CLR 20/13 A3013 RMK AO2 SLP197
         T02000128 10200 20072 58009
         
17Z KBPK 241653Z AUTO 00000KT 9SM OVC034 18/12 A3015 RMK AO2 SLP206
         T01780122
         
16Z KBPK 241553Z AUTO 00000KT 9SM CLR 17/12 A3016 RMK AO2 SLP209
         T01720117
         
***** Yesterday's Observations (Above) *****


Back to Main Page
http://www.srh.noaa.gov/lzk/qfcst.php

USA.gov is the U.S. government's official web portal to all federal, state and local government web resources and services.